メインページ
METAR-TAF:

METAR-TAF

空港 :

ソルトレイクシティ国際空港

ソルトレイクシティ, ユタ州, アメリカ合衆国

緯度: 40-46-41N, 経度: 111-58-10W, 海抜: 1288m

現時点の気象観測

当レポートは49分前の08:54(UTC)に作成
の風 6kt
気温 16°C
湿度 51%
気圧 1014 hPa
視程: 16.1km
高度15000ftの雲は散在している

METAR: KSLC 200854Z 17006KT 10SM SCT150 16/06 A2993 RMK AO2 SLP090 T01610061 57007

時間: 03:43 (09:43 UTC)

予報

当レポートは31分前の09:12(UTC)に作成
予報は20日の 09時(UTC)から 21日の 12時(UTC)まで有効
南/南東の風 6kt
視程: 10km
高度8000ftの雲は散在している
高度15000ftの雲は散在している
20日の 2000時(UTC)から
北/北西の風 7kt
視程: 10km
高度6000ftの雲は散在している
高度12000ftの千切れ雲あり
近辺でにわか雨
21日の 0300時(UTC)から
南/南東の風 6kt
視程: 10km
高度8000ftの雲は散在している
高度15000ftの千切れ雲あり

TAF: KSLC 200912Z 2009/2112 15006KT P6SM SCT080 SCT150 FM202000 34007KT P6SM VCSH SCT060 BKN120 FM210300 16006KT P6SM SCT080 BKN150

4,000以上の空港の気象観測と天気予報(METAR報とTAF報)

利用可能な観測所は地図上に黄色い丸と赤い丸で示す。

丸の上にカーソルを重ねると観測所名を参照できる。

次にクリックすると気象観測と天気予報を参照できる。

マップの切り替え:黒色「×」印の緑ボタンをクリックして拡大、「-」印の緑ボタンをクリックして縮小、緑色の三角印をクリックして隣りの地図に切り替え


METAR-TAF: